createdAt,value
2023-05-09T00:02:03.352Z,96644.28
2023-05-09T00:04:32.790Z,96623.78
2023-05-09T00:07:00.653Z,96592.59
2023-05-09T00:09:28.551Z,96614.56
2023-05-09T00:11:56.411Z,96581.94
2023-05-09T00:14:24.924Z,96563.53
2023-05-09T00:16:53.738Z,96526.94
2023-05-09T00:19:23.064Z,96498.72
2023-05-09T00:21:50.929Z,96493.13
2023-05-09T00:24:18.900Z,96466.56
2023-05-09T00:26:46.950Z,96444.28
2023-05-09T00:29:14.738Z,96420.63
2023-05-09T00:31:42.804Z,96403.75
2023-05-09T00:34:11.048Z,96391.94
2023-05-09T00:36:40.468Z,96393.56
2023-05-09T00:39:09.604Z,96384.41
2023-05-09T00:41:37.381Z,96373.41
2023-05-09T00:44:05.883Z,96348.50
2023-05-09T00:46:33.954Z,96330.78
2023-05-09T00:49:01.979Z,96311.28
2023-05-09T00:51:30.434Z,96311.28
2023-05-09T00:54:00.056Z,96294.25
2023-05-09T00:56:28.024Z,96280.66
2023-05-09T00:58:56.644Z,96270.81
2023-05-09T01:01:24.584Z,96267.88
2023-05-09T01:03:53.216Z,96256.41
2023-05-09T01:06:31.473Z,96255.25
2023-05-09T01:09:07.355Z,96234.09
2023-05-09T01:11:40.479Z,96218.72
2023-05-09T01:14:16.787Z,96193.19
2023-05-09T01:16:55.145Z,96187.44
2023-05-09T01:19:41.836Z,96155.34
2023-05-09T01:22:13.631Z,96144.06
2023-05-09T01:25:03.128Z,96131.59
2023-05-09T01:27:45.228Z,96110.00
2023-05-09T01:30:17.518Z,96099.19
2023-05-09T01:32:50.844Z,96081.22
2023-05-09T01:35:19.825Z,96078.25
2023-05-09T01:37:51.917Z,96058.94
2023-05-09T01:40:21.869Z,96057.66
2023-05-09T01:42:53.570Z,96050.13
2023-05-09T01:45:24.879Z,96027.88
2023-05-09T01:47:53.143Z,96015.09
2023-05-09T01:50:22.767Z,96000.56
2023-05-09T01:52:53.675Z,96001.53
2023-05-09T01:55:25.564Z,96004.97
2023-05-09T01:57:54.949Z,95998.41
2023-05-09T02:00:25.423Z,95995.66
2023-05-09T02:02:53.682Z,95985.00
2023-05-09T02:05:23.240Z,95964.41
2023-05-09T02:07:51.275Z,95948.41
2023-05-09T02:10:20.855Z,95932.06
2023-05-09T02:12:48.778Z,95923.72
2023-05-09T02:15:17.028Z,95915.34
2023-05-09T02:17:46.568Z,95910.13
2023-05-09T02:20:14.412Z,95900.16
2023-05-09T02:22:44.474Z,95892.31
2023-05-09T02:25:15.598Z,95888.22
2023-05-09T02:27:46.282Z,95870.25
2023-05-09T02:30:20.590Z,95879.88
2023-05-09T02:32:51.573Z,95858.81
2023-05-09T02:35:20.218Z,95869.59
2023-05-09T02:37:49.535Z,95874.81
2023-05-09T02:40:17.772Z,95855.53
2023-05-09T02:42:45.528Z,95846.72
2023-05-09T02:45:13.794Z,95866.97
2023-05-09T02:47:42.284Z,95877.13
2023-05-09T02:50:12.439Z,95871.88
2023-05-09T02:52:41.108Z,95881.19
2023-05-09T02:55:10.149Z,95896.72
2023-05-09T02:57:38.034Z,95901.63
2023-05-09T03:00:09.365Z,95908.00
2023-05-09T03:02:37.467Z,95930.41
2023-05-09T03:05:05.995Z,95945.47
2023-05-09T03:07:35.224Z,95964.09
2023-05-09T03:10:03.103Z,95987.97
2023-05-09T03:12:31.223Z,96014.44
2023-05-09T03:14:59.064Z,96055.19
2023-05-09T03:17:27.610Z,96079.56
2023-05-09T03:19:55.830Z,96152.59
2023-05-09T03:22:23.589Z,96172.88
2023-05-09T03:24:52.710Z,96222.00
2023-05-09T03:27:20.815Z,96269.34
2023-05-09T03:29:48.533Z,96310.16
2023-05-09T03:32:16.484Z,96357.69
2023-05-09T03:34:44.255Z,96413.75
2023-05-09T03:37:12.132Z,96513.16
2023-05-09T03:39:42.395Z,96610.97
2023-05-09T03:42:11.696Z,96708.69
2023-05-09T03:44:39.499Z,96826.19
2023-05-09T03:47:07.607Z,96902.00
2023-05-09T03:49:35.642Z,97002.53
2023-05-09T03:52:04.288Z,97063.81
2023-05-09T03:54:32.250Z,97200.50
2023-05-09T03:57:00.177Z,97274.13
2023-05-09T03:59:30.480Z,97372.09
2023-05-09T04:01:58.411Z,97462.84
2023-05-09T04:04:26.679Z,97567.19
2023-05-09T04:06:54.587Z,97639.72
2023-05-09T04:09:22.499Z,97740.84
2023-05-09T04:11:50.450Z,97785.31
2023-05-09T04:14:18.244Z,97865.91
2023-05-09T04:16:47.452Z,97927.81
2023-05-09T04:19:15.370Z,97979.41
2023-05-09T04:21:43.168Z,98028.53
2023-05-09T04:24:11.025Z,98059.78
2023-05-09T04:26:39.073Z,98115.56
2023-05-09T04:29:06.947Z,98154.34
2023-05-09T04:31:36.038Z,98214.34
2023-05-09T04:34:05.277Z,98279.69
2023-05-09T04:36:33.954Z,98362.31
2023-05-09T04:39:05.213Z,98421.69
2023-05-09T04:41:33.096Z,98529.28
2023-05-09T04:44:00.975Z,98596.44
2023-05-09T04:46:28.925Z,98720.56
2023-05-09T04:48:56.785Z,98811.66
2023-05-09T04:51:26.089Z,98888.06
2023-05-09T04:53:53.927Z,98979.22
2023-05-09T04:56:21.905Z,99072.63
2023-05-09T04:58:49.820Z,99135.78
2023-05-09T05:01:17.834Z,99179.66
2023-05-09T05:03:46.123Z,99245.38
2023-05-09T05:06:13.988Z,99325.78
2023-05-09T05:08:43.233Z,99409.59
2023-05-09T05:11:11.044Z,99496.28
2023-05-09T05:13:39.016Z,99568.16
2023-05-09T05:16:07.073Z,99650.50
2023-05-09T05:18:35.031Z,99716.09
2023-05-09T05:21:03.004Z,99785.00
2023-05-09T05:23:30.794Z,99856.22
2023-05-09T05:26:00.255Z,99924.03
2023-05-09T05:28:28.067Z,100004.63
2023-05-09T05:30:55.980Z,100082.97
2023-05-09T05:33:23.853Z,100141.06
2023-05-09T05:35:51.712Z,100179.44
2023-05-09T05:38:19.748Z,100285.59
2023-05-09T05:40:47.754Z,100371.84
2023-05-09T05:43:16.870Z,100351.03
2023-05-09T05:45:44.636Z,100410.63
2023-05-09T05:48:12.548Z,100470.13
2023-05-09T05:50:40.321Z,100534.25
2023-05-09T05:53:08.050Z,100588.84
2023-05-09T05:55:35.961Z,100592.22
2023-05-09T05:58:03.759Z,100691.78
2023-05-09T06:00:33.019Z,100793.97
2023-05-09T06:03:00.890Z,100888.22
2023-05-09T06:05:28.685Z,100911.81
2023-05-09T06:07:56.547Z,101007.09
2023-05-09T06:10:24.423Z,101084.22
2023-05-09T06:12:52.375Z,101139.94
2023-05-09T06:15:20.171Z,101237.06
2023-05-09T06:17:50.028Z,101306.25
2023-05-09T06:20:18.155Z,101318.56
2023-05-09T06:22:45.972Z,101340.47
2023-05-09T06:25:14.196Z,101376.41
2023-05-09T06:27:42.853Z,101432.47
2023-05-09T06:30:24.502Z,101542.06
2023-05-09T06:32:54.593Z,101588.53
2023-05-09T06:35:22.710Z,101630.78
2023-05-09T06:37:50.503Z,101522.19
2023-05-09T06:40:18.575Z,101536.94
2023-05-09T06:42:46.562Z,101590.47
2023-05-09T06:45:14.667Z,101623.94
2023-05-09T06:47:42.743Z,101556.31
2023-05-09T06:50:12.497Z,101636.16
2023-05-09T06:52:40.352Z,101544.25
2023-05-09T06:55:09.908Z,101723.88
2023-05-09T06:57:38.038Z,101843.19
2023-05-09T07:00:07.287Z,101954.00
2023-05-09T07:02:35.177Z,102157.91
2023-05-09T07:05:03.183Z,102114.13
2023-05-09T07:07:32.401Z,102182.84
2023-05-09T07:10:10.669Z,102216.91
2023-05-09T07:12:41.978Z,102116.06
2023-05-09T07:15:11.203Z,102243.47
2023-05-09T07:17:39.272Z,102382.47
2023-05-09T07:20:08.787Z,102512.91
2023-05-09T07:22:38.549Z,102648.78
2023-05-09T07:25:09.074Z,102783.81
2023-05-09T07:27:37.154Z,102940.13
2023-05-09T07:30:05.597Z,102841.31
2023-05-09T07:32:33.554Z,102961.38
2023-05-09T07:35:01.414Z,102922.66
2023-05-09T07:37:29.221Z,102937.63
2023-05-09T07:39:58.348Z,103048.16
2023-05-09T07:42:26.430Z,103164.88
2023-05-09T07:44:54.586Z,103175.56
2023-05-09T07:47:22.602Z,103172.13
2023-05-09T07:49:50.478Z,103141.19
2023-05-09T07:52:18.688Z,103229.81
2023-05-09T07:54:46.546Z,103284.53
2023-05-09T07:57:16.113Z,103227.13
2023-05-09T07:59:44.192Z,103185.50
2023-05-09T08:02:11.983Z,103152.84
2023-05-09T08:04:41.492Z,103113.88
2023-05-09T08:07:09.611Z,103277.56
2023-05-09T08:09:37.595Z,103292.91
2023-05-09T08:12:06.085Z,103297.25
2023-05-09T08:14:35.616Z,103187.53
2023-05-09T08:17:03.464Z,103352.16
2023-05-09T08:19:31.229Z,103384.94
2023-05-09T08:21:59.096Z,103497.53
2023-05-09T08:24:26.838Z,103559.47
2023-05-09T08:26:55.848Z,103759.00
2023-05-09T08:29:23.696Z,103887.00
2023-05-09T08:31:53.023Z,103989.28
2023-05-09T08:34:22.305Z,104154.53
2023-05-09T08:36:50.202Z,104222.28
2023-05-09T08:39:18.192Z,104484.09
2023-05-09T08:41:46.481Z,104584.66
2023-05-09T08:44:14.670Z,104674.91
2023-05-09T08:46:45.421Z,104717.88
2023-05-09T08:49:17.132Z,104730.34
2023-05-09T08:51:45.976Z,104772.16
2023-05-09T08:54:14.387Z,104730.34
2023-05-09T08:56:43.143Z,104682.19
2023-05-09T08:59:11.255Z,104796.34
2023-05-09T09:01:39.437Z,104777.59
2023-05-09T09:04:08.948Z,105021.59
2023-05-09T09:06:38.968Z,105112.81
2023-05-09T09:09:08.557Z,105057.38
2023-05-09T09:11:37.450Z,105098.44
2023-05-09T09:14:09.769Z,105238.16
2023-05-09T09:16:38.757Z,105359.59
2023-05-09T09:19:12.551Z,105669.94
2023-05-09T09:21:43.788Z,105933.75
2023-05-09T09:24:16.128Z,106064.97
2023-05-09T09:26:50.006Z,106091.91
2023-05-09T09:29:18.945Z,106037.03
2023-05-09T09:31:55.705Z,105960.81
2023-05-09T09:34:24.740Z,106151.25
2023-05-09T09:36:54.226Z,106252.00
2023-05-09T09:39:22.445Z,106188.19
2023-05-09T09:41:50.442Z,106184.50
2023-05-09T09:44:20.545Z,106332.88
2023-05-09T09:46:50.629Z,106365.53
2023-05-09T09:49:20.248Z,106574.25
2023-05-09T09:51:52.145Z,106707.78
2023-05-09T09:54:21.892Z,106354.59
2023-05-09T09:56:51.808Z,106091.84
2023-05-09T09:59:21.272Z,106090.94
2023-05-09T10:02:06.641Z,106373.34
2023-05-09T10:04:37.036Z,106528.44
2023-05-09T10:07:07.398Z,106680.56
2023-05-09T10:09:38.139Z,106492.22
2023-05-09T10:12:07.308Z,106731.94
2023-05-09T10:14:37.729Z,106803.19
2023-05-09T10:17:06.880Z,106926.97
2023-05-09T10:19:36.867Z,107115.66
2023-05-09T10:22:06.866Z,107293.78
2023-05-09T10:24:41.959Z,107371.66
2023-05-09T10:27:12.797Z,107430.50
2023-05-09T10:29:46.093Z,107285.63
2023-05-09T10:32:20.545Z,107236.66
2023-05-09T10:34:52.479Z,107063.16
2023-05-09T10:37:22.451Z,107016.16
2023-05-09T10:39:53.908Z,107049.53
2023-05-09T10:42:25.256Z,107176.84
2023-05-09T10:44:54.697Z,107230.16
2023-05-09T10:47:23.371Z,107015.97
2023-05-09T10:49:51.338Z,106577.34
2023-05-09T10:52:19.212Z,106944.50
2023-05-09T10:55:01.650Z,106745.97
2023-05-09T10:57:30.679Z,106511.56
2023-05-09T11:00:00.156Z,106532.09
2023-05-09T11:02:31.008Z,106579.91
2023-05-09T11:05:15.938Z,106753.19
2023-05-09T11:07:44.418Z,106750.19
2023-05-09T11:10:17.751Z,106704.16
2023-05-09T11:12:58.019Z,106506.81
2023-05-09T11:15:27.619Z,106714.97
2023-05-09T11:18:07.928Z,107072.41
2023-05-09T11:20:43.520Z,107264.03
2023-05-09T11:23:11.941Z,107242.41
2023-05-09T11:25:46.536Z,107228.69
2023-05-09T11:28:28.893Z,106584.09
2023-05-09T11:31:10.855Z,106369.66
2023-05-09T11:33:40.224Z,106289.47
2023-05-09T11:36:19.931Z,105778.97
2023-05-09T11:38:48.693Z,105462.44
2023-05-09T11:41:18.164Z,105487.31
2023-05-09T11:43:46.417Z,105732.16
2023-05-09T11:46:14.207Z,105966.38
2023-05-09T11:48:42.940Z,106212.94
2023-05-09T11:51:18.354Z,106077.81
2023-05-09T11:53:47.026Z,106101.09
2023-05-09T11:56:17.508Z,105823.56
2023-05-09T11:58:46.756Z,105723.97
2023-05-09T12:01:14.620Z,105711.31
2023-05-09T12:03:46.038Z,105990.28
2023-05-09T12:06:18.266Z,105644.91
2023-05-09T12:08:47.397Z,105671.84
2023-05-09T12:11:17.280Z,105653.69
2023-05-09T12:13:49.665Z,105896.72
2023-05-09T12:16:19.256Z,106027.03
2023-05-09T12:18:48.211Z,105797.19
2023-05-09T12:21:16.530Z,105978.56
2023-05-09T12:23:44.628Z,105764.81
2023-05-09T12:26:12.569Z,105605.06
2023-05-09T12:28:42.682Z,105391.84
2023-05-09T12:31:10.731Z,105466.03
2023-05-09T12:33:39.899Z,105477.63
2023-05-09T12:36:10.316Z,105570.84
2023-05-09T12:38:38.904Z,105621.94
2023-05-09T12:41:15.472Z,105558.38
2023-05-09T12:43:51.729Z,105938.75
2023-05-09T12:46:20.363Z,105847.25
2023-05-09T12:48:49.516Z,106095.81
2023-05-09T12:51:20.387Z,106280.28
2023-05-09T12:53:50.101Z,106404.63
2023-05-09T12:56:19.603Z,106249.72
2023-05-09T12:58:53.010Z,105614.63
2023-05-09T13:01:21.990Z,105287.63
2023-05-09T13:03:53.500Z,104929.97
2023-05-09T13:06:21.676Z,104706.72
2023-05-09T13:08:58.908Z,104802.91
2023-05-09T13:11:26.903Z,105080.63
2023-05-09T13:13:56.730Z,105106.69
2023-05-09T13:16:24.883Z,105073.44
2023-05-09T13:18:52.692Z,105240.91
2023-05-09T13:21:21.036Z,105405.56
2023-05-09T13:23:50.201Z,105423.31
2023-05-09T13:26:18.121Z,105627.53
2023-05-09T13:28:45.943Z,105740.72
2023-05-09T13:31:15.338Z,105850.09
2023-05-09T13:33:43.199Z,105957.94
2023-05-09T13:36:11.153Z,105899.53
2023-05-09T13:38:40.979Z,105885.97
2023-05-09T13:41:08.931Z,105847.50
2023-05-09T13:43:37.562Z,105865.34
2023-05-09T13:46:05.461Z,105652.69
2023-05-09T13:48:34.627Z,105120.63
2023-05-09T13:51:02.476Z,104751.72
2023-05-09T13:53:30.407Z,104690.91
2023-05-09T13:55:58.433Z,104902.41
2023-05-09T13:58:26.252Z,104952.53
2023-05-09T14:00:54.038Z,104968.50
2023-05-09T14:03:21.915Z,104786.41
2023-05-09T14:05:51.854Z,104847.00
2023-05-09T14:08:21.308Z,105147.31
2023-05-09T14:10:50.078Z,105165.03
2023-05-09T14:13:18.215Z,105032.81
2023-05-09T14:15:48.501Z,105149.75
2023-05-09T14:18:20.057Z,105435.31
2023-05-09T14:20:49.120Z,105600.06
2023-05-09T14:23:18.466Z,105656.53
2023-05-09T14:25:46.319Z,105479.19
2023-05-09T14:28:14.604Z,105123.09
2023-05-09T14:30:42.952Z,105220.34
2023-05-09T14:33:14.516Z,105570.34
2023-05-09T14:35:42.391Z,105875.47
2023-05-09T14:38:10.352Z,105937.53
2023-05-09T14:40:39.522Z,106092.03
2023-05-09T14:43:07.431Z,105792.91
2023-05-09T14:45:35.506Z,105453.00
2023-05-09T14:48:03.969Z,105021.84
2023-05-09T14:50:32.066Z,104827.97
2023-05-09T14:53:03.832Z,104857.25
2023-05-09T14:55:32.504Z,104870.75
2023-05-09T14:58:02.559Z,104809.81
2023-05-09T15:00:31.020Z,105281.81
2023-05-09T15:02:58.999Z,105174.56
2023-05-09T15:05:26.891Z,104949.03
2023-05-09T15:07:54.805Z,104699.09
2023-05-09T15:10:22.902Z,104552.25
2023-05-09T15:12:50.872Z,104552.91
2023-05-09T15:15:21.658Z,104718.63
2023-05-09T15:17:49.593Z,104918.66
2023-05-09T15:20:18.662Z,104673.19
2023-05-09T15:22:47.676Z,104740.97
2023-05-09T15:25:16.820Z,104841.91
2023-05-09T15:27:44.868Z,104749.91
2023-05-09T15:30:13.992Z,104672.13
2023-05-09T15:32:43.576Z,104492.13
2023-05-09T15:35:11.487Z,104293.38
2023-05-09T15:37:39.549Z,104403.66
2023-05-09T15:40:09.247Z,104473.31
2023-05-09T15:42:37.655Z,104019.75
2023-05-09T15:45:06.519Z,103859.44
2023-05-09T15:47:34.330Z,103869.28
2023-05-09T15:50:03.551Z,103808.72
2023-05-09T15:52:31.918Z,103645.53
2023-05-09T15:54:59.898Z,103580.91
2023-05-09T15:57:28.033Z,103548.84
2023-05-09T15:59:56.117Z,103725.22
2023-05-09T16:02:24.261Z,103756.22
2023-05-09T16:04:52.496Z,103587.84
2023-05-09T16:07:21.948Z,103674.72
2023-05-09T16:09:50.015Z,103526.53
2023-05-09T16:12:17.974Z,103681.66
2023-05-09T16:14:45.985Z,103661.28
2023-05-09T16:17:14.023Z,103622.25
2023-05-09T16:19:42.444Z,103472.44
2023-05-09T16:22:10.369Z,103429.03
2023-05-09T16:24:39.478Z,103258.13
2023-05-09T16:27:07.503Z,103068.91
2023-05-09T16:29:35.280Z,103006.94
2023-05-09T16:32:04.222Z,102852.41
2023-05-09T16:34:32.953Z,102657.50
2023-05-09T16:37:01.407Z,102361.44
2023-05-09T16:39:29.683Z,102173.16
2023-05-09T16:41:59.693Z,102032.34
2023-05-09T16:44:27.603Z,101925.97
2023-05-09T16:46:55.346Z,101790.06
2023-05-09T16:49:23.187Z,101748.06
2023-05-09T16:51:50.952Z,101722.41
2023-05-09T16:54:18.755Z,101708.34
2023-05-09T16:56:46.818Z,101688.22
2023-05-09T16:59:17.360Z,101655.53
2023-05-09T17:01:45.151Z,101627.59
2023-05-09T17:04:12.989Z,101570.59
2023-05-09T17:06:40.810Z,101505.47
2023-05-09T17:09:08.702Z,101460.31
2023-05-09T17:11:36.691Z,101473.34
2023-05-09T17:14:04.792Z,101481.28
2023-05-09T17:16:35.300Z,101460.19
2023-05-09T17:19:05.283Z,101419.00
2023-05-09T17:21:33.240Z,101397.19
2023-05-09T17:24:02.013Z,101353.31
2023-05-09T17:26:30.670Z,101347.81
2023-05-09T17:28:58.449Z,101332.97
2023-05-09T17:31:26.539Z,101292.28
2023-05-09T17:33:55.956Z,101258.78
2023-05-09T17:36:23.829Z,101224.56
2023-05-09T17:38:52.270Z,101183.44
2023-05-09T17:41:20.377Z,101154.69
2023-05-09T17:43:51.920Z,101101.28
2023-05-09T17:46:20.022Z,101018.28
2023-05-09T17:48:48.291Z,100952.03
2023-05-09T17:51:17.906Z,100913.72
2023-05-09T17:53:46.809Z,100835.75
2023-05-09T17:56:14.710Z,100797.34
2023-05-09T17:58:42.482Z,100769.53
2023-05-09T18:01:10.765Z,100730.31
2023-05-09T18:03:39.363Z,100711.88
2023-05-09T18:06:07.511Z,100690.97
2023-05-09T18:08:37.093Z,100645.59
2023-05-09T18:11:05.616Z,100614.31
2023-05-09T18:13:34.381Z,100594.25
2023-05-09T18:16:02.798Z,100569.75
2023-05-09T18:18:32.355Z,100555.06
2023-05-09T18:21:00.393Z,100497.47
2023-05-09T18:23:28.404Z,100491.38
2023-05-09T18:25:57.660Z,100440.72
2023-05-09T18:28:27.457Z,100413.09
2023-05-09T18:30:56.887Z,100396.63
2023-05-09T18:33:26.328Z,100370.31
2023-05-09T18:35:55.045Z,100329.63
2023-05-09T18:38:23.831Z,100317.38
2023-05-09T18:40:52.290Z,100286.03
2023-05-09T18:43:22.462Z,100265.91
2023-05-09T18:45:51.892Z,100257.44
2023-05-09T18:48:20.117Z,100223.41
2023-05-09T18:50:48.893Z,100186.88
2023-05-09T18:53:16.760Z,100163.50
2023-05-09T18:55:44.711Z,100139.31
2023-05-09T18:58:12.564Z,100107.88
2023-05-09T19:00:42.860Z,100063.47
2023-05-09T19:03:10.713Z,100055.72
2023-05-09T19:05:38.656Z,100030.66
2023-05-09T19:08:07.058Z,100006.97
2023-05-09T19:10:36.197Z,99965.41
2023-05-09T19:13:04.180Z,99947.25
2023-05-09T19:15:32.148Z,99925.50
2023-05-09T19:18:02.039Z,99906.28
2023-05-09T19:20:30.376Z,99880.31
2023-05-09T19:25:43.740Z,99843.22
2023-05-09T19:28:14.585Z,99811.81
2023-05-09T19:30:42.581Z,99833.44
2023-05-09T19:33:12.083Z,99808.19
2023-05-09T19:35:39.907Z,99779.56
2023-05-09T19:38:08.796Z,99777.91
2023-05-09T19:40:36.665Z,99767.50
2023-05-09T19:43:04.747Z,99749.28
2023-05-09T19:45:32.624Z,99726.72
2023-05-09T19:48:00.672Z,99736.38
2023-05-09T19:50:31.066Z,99722.47
2023-05-09T19:52:59.418Z,99672.16
2023-05-09T19:55:27.455Z,99696.53
2023-05-09T19:57:55.298Z,99690.38
2023-05-09T20:00:23.205Z,99666.00
2023-05-09T20:02:51.147Z,99666.00
2023-05-09T20:05:19.121Z,99661.78
2023-05-09T20:10:34.252Z,99658.44
2023-05-09T20:13:03.951Z,99632.09
2023-05-09T20:15:32.232Z,99625.38
2023-05-09T20:18:03.568Z,99625.38
2023-05-09T20:20:32.691Z,99625.38
2023-05-09T20:23:02.278Z,99605.31
2023-05-09T20:25:30.556Z,99601.94
2023-05-09T20:27:58.826Z,99587.22
2023-05-09T20:30:27.242Z,99560.34
2023-05-09T20:32:55.250Z,99567.34
2023-05-09T20:35:23.232Z,99566.50
2023-05-09T20:37:51.232Z,99573.22
2023-05-09T20:40:20.780Z,99546.47
2023-05-09T20:42:48.596Z,99511.88
2023-05-09T20:45:16.578Z,99460.91
2023-05-09T20:47:44.511Z,99466.91
2023-05-09T20:50:12.549Z,99441.03
2023-05-09T20:52:40.344Z,99459.22
2023-05-09T20:55:08.813Z,99437.38
2023-05-09T20:57:38.031Z,99446.91
2023-05-09T21:00:07.666Z,99428.13
2023-05-09T21:02:35.840Z,99428.94
2023-05-09T21:05:03.829Z,99447.88
2023-05-09T21:07:31.691Z,99411.97
2023-05-09T21:09:59.722Z,99450.25
2023-05-09T21:12:27.858Z,99427.75
2023-05-09T21:14:56.953Z,99442.69
2023-05-09T21:17:24.888Z,99425.31
2023-05-09T21:19:52.697Z,99405.69
2023-05-09T21:22:20.575Z,99392.41
2023-05-09T21:24:48.492Z,99426.16
2023-05-09T21:27:16.282Z,99405.44
2023-05-09T21:29:44.054Z,99405.44
2023-05-09T21:32:13.242Z,99382.06
2023-05-09T21:34:41.100Z,99386.25
2023-05-09T21:37:08.955Z,99364.72
2023-05-09T21:39:36.862Z,99360.50
2023-05-09T21:42:04.963Z,99357.00
2023-05-09T21:44:33.160Z,99363.03
2023-05-09T21:47:01.952Z,99346.66
2023-05-09T21:49:31.811Z,99341.34
2023-05-09T21:52:02.143Z,99338.97
2023-05-09T21:54:31.712Z,99332.13
2023-05-09T21:56:59.569Z,99306.66
2023-05-09T21:59:28.219Z,99335.47
2023-05-09T22:01:56.112Z,99328.47
2023-05-09T22:04:24.008Z,99284.13
2023-05-09T22:06:53.276Z,99257.69
2023-05-09T22:09:21.218Z,99277.53
2023-05-09T22:11:48.991Z,99245.41
2023-05-09T22:14:16.977Z,99221.50
2023-05-09T22:16:44.804Z,99217.72
2023-05-09T22:19:12.728Z,99239.53
2023-05-09T22:21:40.723Z,99237.56
2023-05-09T22:24:10.035Z,99220.50
2023-05-09T22:26:37.914Z,99189.72
2023-05-09T22:29:06.001Z,99177.16
2023-05-09T22:31:33.956Z,99163.59
2023-05-09T22:34:02.063Z,99159.84
2023-05-09T22:36:29.967Z,99145.44
2023-05-09T22:38:57.912Z,99163.47
2023-05-09T22:41:27.550Z,99179.13
2023-05-09T22:43:55.463Z,99173.81
2023-05-09T22:46:23.457Z,99175.47
2023-05-09T22:48:51.324Z,99166.97
2023-05-09T22:51:19.294Z,99172.13
2023-05-09T22:53:51.871Z,99149.78
2023-05-09T22:56:19.749Z,99117.66
2023-05-09T22:58:49.719Z,99123.78
2023-05-09T23:01:17.551Z,99131.63
2023-05-09T23:03:45.667Z,99119.19
2023-05-09T23:06:13.471Z,99147.81
2023-05-09T23:08:41.428Z,99111.50
2023-05-09T23:11:09.306Z,99085.91
2023-05-09T23:13:37.125Z,99039.97
2023-05-09T23:16:07.155Z,99060.06
2023-05-09T23:18:34.959Z,99048.63
2023-05-09T23:21:02.809Z,99009.81
2023-05-09T23:23:30.602Z,99008.13
2023-05-09T23:25:58.517Z,98983.00
2023-05-09T23:28:27.345Z,98944.19
2023-05-09T23:30:55.600Z,98933.16
2023-05-09T23:33:24.768Z,98923.53
2023-05-09T23:35:52.582Z,98914.88
2023-05-09T23:38:20.760Z,98962.31
2023-05-09T23:40:48.630Z,98945.16
2023-05-09T23:43:16.445Z,98953.81
2023-05-09T23:45:44.533Z,98940.84
2023-05-09T23:48:12.521Z,98886.28
2023-05-09T23:50:42.592Z,98885.88
2023-05-09T23:53:10.783Z,98877.78
2023-05-09T23:55:39.318Z,98865.91
2023-05-09T23:58:07.164Z,98850.28
